New York, New York
Current Conditions -  °F | °C
As of 7:00 PM on Wednesday 22 Oct 2014 (Local Time) from KNYC Reporting Station
Heavy Rain Heavy Rain  
Wind Chill: 52°   Ceiling: 1200
Heat Index: 52°   Visibility: 2mi
Dew Point: 49°   Wind: 8mph
Humidity: 89%   Direction: 30°NNE
Pressure: 29.84"   Gusts: 18mph
Location:  40.71°N, 74.01°W
Report Text: KNYC 222300Z AUTO 03007G16KT 340V050 2SM +RA BR BKN012 OVC019 11/09 A2984 RMK AO2 P0004 T01110094 $
Loading
Personal Weather Stations






























Interactive Weather Map New forecast layout! Learn more

10-Day Weather Forecast

Advertisements
Track Severe Weather on mobile